Time;durP1;ratioP1;P1;durP2;ratioP2;P2;SDS_P1;SDS_P2;PMS_P1;PMS_P2;Temp;Humidity;BMP_temperature;BMP_pressure;BME280_temperature;BME280_humidity;BME280_pressure;Samples;Min_cycle;Max_cycle;Signal;HPM_P1;HPM_P2
2023/01/12 00:01:24;;;;;;;36.03;5.78;;;7.90;99.90;;;;;;5056757;28;20441;-70
2023/01/12 00:03:51;;;;;;;35.28;5.75;;;7.90;99.90;;;;;;5073774;28;20254;-70
2023/01/12 00:06:18;;;;;;;30.75;6.28;;;7.90;99.90;;;;;;5073460;28;20052;-71
2023/01/12 00:08:45;;;;;;;22.25;4.93;;;7.90;99.90;;;;;;5074522;28;20135;-70
2023/01/12 00:11:11;;;;;;;32.75;5.00;;;7.90;99.90;;;;;;5056642;28;20052;-72
2023/01/12 00:13:36;;;;;;;30.88;4.20;;;7.90;99.90;;;;;;5072898;28;20047;-72
2023/01/12 00:18:48;;;;;;;35.75;4.70;;;7.90;99.90;;;;;;5074502;28;20108;-72
2023/01/12 00:21:15;;;;;;;24.60;3.03;;;7.90;99.90;;;;;;5056874;28;20497;-71
2023/01/12 00:23:41;;;;;;;25.75;3.33;;;7.90;99.90;;;;;;5056951;28;20045;-72
2023/01/12 00:26:08;;;;;;;36.42;4.43;;;8.00;99.90;;;;;;5073645;28;20090;-71
2023/01/12 00:28:40;;;;;;;33.50;3.47;;;8.00;99.90;;;;;;5057111;28;20538;-71
2023/01/12 00:31:09;;;;;;;37.92;4.32;;;8.10;99.90;;;;;;5073395;28;20158;-71
2023/01/12 00:33:36;;;;;;;25.85;4.18;;;8.10;99.90;;;;;;5074040;28;20460;-70
2023/01/12 00:36:10;;;;;;;31.58;3.92;;;8.00;99.90;;;;;;5073053;28;20131;-71
2023/01/12 00:38:37;;;;;;;28.50;3.92;;;8.00;99.90;;;;;;5057642;28;20373;-71
2023/01/12 00:41:11;;;;;;;32.35;3.90;;;8.00;99.90;;;;;;5073840;28;20048;-71
2023/01/12 00:46:31;;;;;;;31.50;3.45;;;8.00;99.90;;;;;;5058662;28;20052;-71
2023/01/12 00:48:57;;;;;;;35.17;3.75;;;8.10;99.90;;;;;;5072826;28;20071;-71
2023/01/12 00:51:23;;;;;;;27.52;4.15;;;8.10;99.90;;;;;;5072663;28;20044;-71
2023/01/12 00:53:49;;;;;;;46.67;4.05;;;8.10;99.90;;;;;;5073849;28;20056;-71
2023/01/12 00:56:15;;;;;;;38.90;3.92;;;8.10;99.90;;;;;;5072348;28;20044;-70
2023/01/12 00:58:40;;;;;;;29.45;3.00;;;8.10;99.90;;;;;;5072560;28;20055;-71
2023/01/12 01:01:07;;;;;;;34.58;4.18;;;8.20;99.90;;;;;;5073744;28;20037;-70
2023/01/12 01:03:34;;;;;;;40.28;5.03;;;8.20;99.90;;;;;;5073805;28;20037;-74
2023/01/12 01:06:04;;;;;;;30.40;4.15;;;8.30;99.90;;;;;;5072901;28;20052;-71
2023/01/12 01:08:30;;;;;;;31.38;4.50;;;8.30;99.90;;;;;;5072533;28;20420;-71
2023/01/12 01:11:07;;;;;;;35.90;5.13;;;8.20;99.90;;;;;;5073676;28;20136;-71
2023/01/12 01:13:35;;;;;;;26.85;4.10;;;8.30;99.90;;;;;;5074360;28;20044;-71
2023/01/12 01:16:03;;;;;;;40.03;5.50;;;8.20;99.90;;;;;;5073458;28;20071;-71
2023/01/12 01:18:29;;;;;;;24.63;3.78;;;8.20;99.90;;;;;;5073554;28;20052;-71
2023/01/12 01:20:55;;;;;;;29.15;4.25;;;8.20;99.90;;;;;;5073720;28;20044;-71
2023/01/12 01:23:23;;;;;;;32.10;5.00;;;8.20;99.90;;;;;;5056680;28;20056;-70
2023/01/12 01:25:49;;;;;;;20.73;4.93;;;8.20;99.90;;;;;;5039978;28;20377;-71
2023/01/12 01:28:16;;;;;;;38.88;5.05;;;8.20;99.90;;;;;;5055528;28;20051;-71
2023/01/12 01:30:42;;;;;;;31.08;4.53;;;8.20;99.90;;;;;;5073968;28;20052;-71
2023/01/12 01:33:08;;;;;;;28.85;4.55;;;8.20;99.90;;;;;;5073211;28;20493;-70
2023/01/12 01:35:38;;;;;;;32.20;4.55;;;8.20;99.90;;;;;;5073194;28;20062;-69
2023/01/12 01:38:04;;;;;;;29.75;4.90;;;8.20;99.90;;;;;;5089172;28;20044;-70
2023/01/12 01:40:31;;;;;;;30.48;5.20;;;8.20;99.90;;;;;;5073892;28;20053;-71
2023/01/12 01:42:57;;;;;;;27.85;5.38;;;8.30;99.90;;;;;;5055860;28;20062;-70
2023/01/12 01:45:23;;;;;;;30.70;4.68;;;8.20;99.90;;;;;;5072408;28;20048;-72
2023/01/12 01:47:52;;;;;;;35.28;5.30;;;8.20;99.90;;;;;;5055650;28;20565;-71
2023/01/12 01:50:33;;;;;;;33.42;4.97;;;8.20;99.90;;;;;;5055471;28;20051;-71
2023/01/12 01:53:07;;;;;;;23.05;4.93;;;8.20;99.90;;;;;;5073197;28;20049;-70
2023/01/12 01:55:48;;;;;;;26.00;4.00;;;8.10;99.90;;;;;;5055851;28;20059;-71
2023/01/12 01:58:36;;;;;;;38.35;6.03;;;8.20;99.90;;;;;;5073064;28;20381;-70
2023/01/12 02:01:03;;;;;;;39.92;4.88;;;8.20;99.90;;;;;;5073299;28;20397;-71
2023/01/12 02:03:29;;;;;;;33.05;4.15;;;8.20;99.90;;;;;;5073090;28;20048;-72
2023/01/12 02:05:56;;;;;;;37.22;5.78;;;8.10;99.90;;;;;;5055305;28;20102;-71
2023/01/12 02:08:48;;;;;;;26.02;5.00;;;8.10;99.90;;;;;;5071937;28;20044;-70
2023/01/12 02:17:13;;;;;;;39.63;5.82;;;8.10;99.90;;;;;;5058072;28;20052;-70
2023/01/12 02:19:44;;;;;;;36.92;5.10;;;8.20;99.90;;;;;;5071778;28;20469;-70
2023/01/12 02:22:32;;;;;;;38.67;4.53;;;8.20;99.90;;;;;;5071703;28;20048;-70
2023/01/12 02:25:18;;;;;;;35.72;4.97;;;8.20;99.90;;;;;;5073681;28;20052;-71
2023/01/12 02:28:06;;;;;;;33.13;4.22;;;8.30;99.90;;;;;;5072921;28;20060;-73
2023/01/12 02:31:11;;;;;;;55.33;6.82;;;8.30;99.90;;;;;;5039628;28;20088;-70
2023/01/12 02:34:12;;;;;;;28.95;5.32;;;8.30;99.90;;;;;;5072708;28;20239;-70
2023/01/12 02:37:03;;;;;;;34.65;4.60;;;8.30;99.90;;;;;;5075580;28;20041;-71
2023/01/12 02:39:38;;;;;;;30.67;4.60;;;8.40;99.90;;;;;;5059611;28;20048;-70
2023/01/12 02:42:41;;;;;;;39.03;5.32;;;8.30;99.90;;;;;;5075931;28;20044;-70
2023/01/12 02:45:56;;;;;;;38.70;5.35;;;8.30;99.90;;;;;;5076250;28;20044;-71
2023/01/12 02:48:35;;;;;;;42.33;5.53;;;8.30;99.90;;;;;;5065962;28;20056;-70
2023/01/12 02:51:31;;;;;;;38.90;4.18;;;8.30;99.90;;;;;;5058539;28;20470;-71
2023/01/12 02:54:01;;;;;;;41.90;5.33;;;8.30;99.90;;;;;;5075980;28;20048;-72
2023/01/12 02:56:49;;;;;;;50.25;6.00;;;8.30;99.90;;;;;;5076737;28;20059;-70
2023/01/12 02:59:32;;;;;;;30.77;5.10;;;8.30;99.90;;;;;;5051776;28;20408;-70
2023/01/12 03:02:07;;;;;;;35.00;5.78;;;8.30;99.90;;;;;;5075535;28;20372;-70
2023/01/12 03:04:34;;;;;;;41.85;6.30;;;8.30;99.90;;;;;;5075333;28;20082;-72
2023/01/12 03:07:01;;;;;;;33.72;5.20;;;8.40;99.90;;;;;;5075829;28;20072;-70
2023/01/12 03:09:33;;;;;;;40.90;5.57;;;8.30;99.90;;;;;;5074403;28;20092;-72
2023/01/12 03:12:11;;;;;;;44.92;5.50;;;8.40;99.90;;;;;;5058789;28;20548;-70
2023/01/12 03:14:41;;;;;;;34.10;5.85;;;8.40;99.90;;;;;;5075096;28;20125;-70
2023/01/12 03:17:12;;;;;;;40.22;5.22;;;8.40;99.90;;;;;;5075557;28;20427;-72
2023/01/12 03:19:40;;;;;;;29.67;5.57;;;8.40;99.90;;;;;;5075124;28;20110;-72
2023/01/12 03:22:12;;;;;;;37.70;5.90;;;8.40;99.90;;;;;;5057641;28;20052;-71
2023/01/12 03:24:43;;;;;;;36.33;6.07;;;8.40;99.90;;;;;;5074603;28;20127;-71
2023/01/12 03:27:17;;;;;;;45.38;7.07;;;8.40;99.90;;;;;;5074912;28;20044;-71
2023/01/12 03:29:58;;;;;;;29.67;5.20;;;8.40;99.90;;;;;;5074922;28;20080;-71
2023/01/12 03:32:25;;;;;;;32.55;6.13;;;8.40;99.90;;;;;;5074677;28;20092;-84
2023/01/12 03:34:51;;;;;;;35.50;6.28;;;8.40;99.90;;;;;;5077348;28;20048;-85
2023/01/12 03:37:22;;;;;;;27.05;4.97;;;8.50;99.90;;;;;;5074843;28;20546;-82
2023/01/12 03:39:56;;;;;;;27.63;5.45;;;8.40;99.90;;;;;;5058973;28;20429;-85
2023/01/12 03:42:34;;;;;;;29.95;4.88;;;8.40;99.90;;;;;;5074618;28;20106;-83
2023/01/12 03:45:08;;;;;;;;;;;8.40;99.90;;;;;;5075558;28;20057;-83
2023/01/12 03:47:35;;;;;;;24.73;5.13;;;8.40;99.90;;;;;;5074622;28;19974;-83
2023/01/12 03:50:20;;;;;;;24.88;4.70;;;8.40;99.90;;;;;;5075354;28;20040;-83
2023/01/12 03:52:47;;;;;;;23.73;4.80;;;8.40;99.90;;;;;;5074952;28;20068;-83
2023/01/12 03:55:18;;;;;;;23.63;4.68;;;8.40;99.90;;;;;;5075827;28;20484;-84
2023/01/12 03:57:45;;;;;;;17.45;4.38;;;8.40;99.90;;;;;;5075502;28;20063;-81
2023/01/12 04:00:13;;;;;;;17.48;4.30;;;8.50;99.90;;;;;;5075851;28;20062;-79
2023/01/12 04:02:41;;;;;;;27.63;5.10;;;8.40;99.90;;;;;;5076135;28;20046;-82
2023/01/12 04:05:08;;;;;;;25.70;4.60;;;8.40;99.90;;;;;;5074268;28;20056;-87
2023/01/12 04:07:34;;;;;;;25.75;5.20;;;8.40;99.90;;;;;;5075782;28;20393;-82
2023/01/12 04:09:59;;;;;;;26.40;5.55;;;8.40;99.90;;;;;;5074744;28;20058;-83
2023/01/12 04:12:25;;;;;;;28.08;5.00;;;8.40;99.90;;;;;;5075090;28;20056;-83
2023/01/12 04:14:51;;;;;;;22.08;4.85;;;8.40;99.90;;;;;;5075871;28;20051;-86
2023/01/12 04:17:17;;;;;;;22.85;4.35;;;8.40;99.90;;;;;;5075086;28;20067;-86
2023/01/12 04:19:43;;;;;;;19.13;3.97;;;8.40;99.90;;;;;;5074780;28;20171;-83
2023/01/12 04:24:59;;;;;;;16.45;3.28;;;8.50;99.90;;;;;;5074960;28;20051;-82
2023/01/12 04:27:25;;;;;;;18.08;2.85;;;8.40;99.90;;;;;;5074003;28;20398;-84
2023/01/12 04:29:51;;;;;;;17.80;3.63;;;8.40;99.90;;;;;;5075007;28;20044;-81
2023/01/12 04:32:17;;;;;;;18.23;2.90;;;8.40;99.90;;;;;;5073773;28;20084;-85
2023/01/12 04:34:42;;;;;;;17.65;1.83;;;8.40;99.90;;;;;;5075138;28;20558;-83
2023/01/12 04:37:08;;;;;;;20.08;2.30;;;8.50;99.90;;;;;;5060536;28;20037;-81
2023/01/12 04:39:34;;;;;;;12.48;2.47;;;8.40;99.90;;;;;;5078472;28;20088;-82
2023/01/12 04:42:00;;;;;;;10.68;2.58;;;8.40;99.90;;;;;;5059693;28;20040;-83
2023/01/12 04:44:25;;;;;;;14.50;2.97;;;8.40;99.90;;;;;;5074064;28;20095;-86
2023/01/12 04:46:51;;;;;;;19.10;2.95;;;8.30;99.90;;;;;;5074525;28;20098;-84
2023/01/12 04:49:17;;;;;;;15.77;1.88;;;8.30;99.90;;;;;;5074486;28;20037;-82
2023/01/12 04:51:43;;;;;;;20.60;1.95;;;8.30;99.90;;;;;;5073700;28;20127;-81
2023/01/12 04:54:09;;;;;;;14.88;2.67;;;8.30;99.90;;;;;;5073646;28;20408;-87
2023/01/12 04:56:35;;;;;;;14.15;2.00;;;8.30;99.90;;;;;;5075088;28;20049;-83
2023/01/12 04:59:01;;;;;;;19.83;3.00;;;8.30;99.90;;;;;;5074326;28;20151;-82
2023/01/12 05:01:30;;;;;;;12.10;2.20;;;8.20;99.90;;;;;;5073367;28;20044;-82
2023/01/12 05:03:59;;;;;;;7.97;1.30;;;8.20;99.90;;;;;;5073752;28;20056;-82
2023/01/12 05:06:25;;;;;;;15.02;2.15;;;8.20;99.90;;;;;;5073232;28;20096;-81
2023/01/12 05:11:36;;;;;;;12.40;1.83;;;8.20;99.90;;;;;;5074172;28;20496;-83
2023/01/12 05:14:02;;;;;;;9.05;1.67;;;8.20;99.90;;;;;;5073139;28;20056;-83
2023/01/12 05:16:28;;;;;;;7.53;1.38;;;8.10;99.90;;;;;;5056469;28;20045;-81
2023/01/12 05:18:54;;;;;;;14.95;1.98;;;8.10;99.90;;;;;;5073699;28;20075;-83
2023/01/12 05:21:21;;;;;;;11.05;1.73;;;8.20;99.90;;;;;;5072423;28;20037;-85
2023/01/12 05:23:48;;;;;;;11.95;1.50;;;8.10;99.90;;;;;;5074547;28;20055;-82
2023/01/12 05:26:13;;;;;;;9.25;1.33;;;8.10;99.90;;;;;;5075012;28;20083;-83
2023/01/12 05:28:40;;;;;;;10.13;1.77;;;8.10;99.90;;;;;;5076957;28;20098;-80
2023/01/12 05:31:12;;;;;;;10.23;1.42;;;8.10;99.90;;;;;;5074967;28;20431;-86
2023/01/12 05:33:40;;;;;;;12.00;1.02;;;8.10;99.90;;;;;;5074382;28;20048;-82
2023/01/12 05:36:11;;;;;;;7.45;1.17;;;8.10;99.90;;;;;;5074516;28;20406;-85
2023/01/12 05:38:37;;;;;;;9.23;1.35;;;8.10;99.90;;;;;;5072868;28;20044;-82
2023/01/12 05:41:06;;;;;;;8.75;1.42;;;8.20;99.90;;;;;;5073710;28;20104;-81
2023/01/12 05:43:50;;;;;;;11.95;1.10;;;8.10;99.90;;;;;;5072968;28;20477;-81
2023/01/12 05:46:23;;;;;;;9.60;1.45;;;8.30;99.90;;;;;;5073740;28;20045;-83
2023/01/12 05:48:49;;;;;;;12.98;1.25;;;8.30;99.90;;;;;;5072642;28;20044;-85
2023/01/12 05:51:16;;;;;;;15.18;1.60;;;8.20;99.90;;;;;;5056023;28;20047;-81
2023/01/12 05:53:42;;;;;;;11.25;1.17;;;8.30;99.90;;;;;;5073237;28;20511;-82
2023/01/12 05:56:27;;;;;;;14.45;1.85;;;8.30;99.90;;;;;;5073776;28;20049;-84
2023/01/12 05:58:54;;;;;;;10.90;1.30;;;8.30;99.90;;;;;;5056819;28;20049;-82
2023/01/12 06:01:21;;;;;;;9.75;1.25;;;8.30;99.90;;;;;;5074145;28;20416;-85
2023/01/12 06:03:49;;;;;;;12.55;1.88;;;8.40;99.90;;;;;;5073852;28;20102;-83
2023/01/12 06:06:15;;;;;;;13.38;1.65;;;8.30;99.90;;;;;;5072903;28;20048;-82
2023/01/12 06:08:41;;;;;;;6.53;1.63;;;8.30;99.90;;;;;;5074293;28;20052;-80
2023/01/12 06:13:55;;;;;;;8.52;1.38;;;8.40;99.90;;;;;;5058406;28;20450;-78
2023/01/12 06:13:58;;;;;;;15.00;1.98;;;8.40;99.90;;;;;;5078387;28;20048;-83
2023/01/12 06:16:25;;;;;;;9.25;1.20;;;8.40;99.90;;;;;;5082303;28;20048;-83
2023/01/12 06:18:51;;;;;;;11.50;1.83;;;8.40;99.90;;;;;;5081242;28;20056;-80
2023/01/12 06:21:17;;;;;;;11.88;1.10;;;8.50;99.90;;;;;;5077372;28;20055;-82
2023/01/12 06:23:42;;;;;;;13.50;1.17;;;8.50;99.90;;;;;;5078256;28;20040;-77
2023/01/12 06:26:09;;;;;;;15.05;1.35;;;8.50;99.90;;;;;;5078604;28;20123;-83
2023/01/12 06:28:36;;;;;;;15.27;1.77;;;8.50;99.90;;;;;;5077534;28;20531;-81
2023/01/12 06:31:04;;;;;;;10.30;1.10;;;8.50;99.90;;;;;;5060034;28;20040;-79
2023/01/12 06:33:30;;;;;;;10.27;1.00;;;8.50;99.90;;;;;;5076662;28;20481;-83
2023/01/12 06:35:56;;;;;;;9.30;1.35;;;8.50;99.90;;;;;;5061011;28;20041;-79
2023/01/12 06:38:25;;;;;;;7.97;2.20;;;8.60;99.90;;;;;;5076076;28;20587;-81
2023/01/12 06:40:51;;;;;;;8.68;1.85;;;8.60;99.90;;;;;;5075848;28;20044;-84
2023/01/12 06:43:17;;;;;;;11.50;1.90;;;8.70;99.90;;;;;;5076873;28;20045;-81
2023/01/12 06:45:44;;;;;;;9.85;1.23;;;8.70;99.90;;;;;;5076250;28;20066;-83
2023/01/12 06:48:10;;;;;;;13.93;1.80;;;8.70;99.90;;;;;;5075934;28;20076;-78
2023/01/12 06:50:36;;;;;;;7.90;1.05;;;8.70;99.90;;;;;;5075524;28;20091;-81
2023/01/12 06:53:05;;;;;;;8.73;1.30;;;8.70;99.90;;;;;;5075878;28;20056;-80
2023/01/12 06:55:31;;;;;;;7.68;1.23;;;8.80;99.90;;;;;;5076100;28;20040;-82
2023/01/12 06:58:01;;;;;;;8.15;1.25;;;8.80;99.90;;;;;;5075262;28;20053;-80
2023/01/12 07:00:27;;;;;;;8.32;1.60;;;8.80;99.90;;;;;;5076741;28;20053;-80
2023/01/12 07:02:53;;;;;;;7.75;1.20;;;8.80;99.90;;;;;;5075039;28;20105;-79
2023/01/12 07:05:19;;;;;;;7.53;1.90;;;8.80;99.90;;;;;;5075102;28;20106;-81
2023/01/12 07:07:44;;;;;;;8.55;1.08;;;8.80;99.90;;;;;;5076716;28;20052;-80
2023/01/12 07:10:11;;;;;;;6.70;1.48;;;8.80;99.90;;;;;;5077034;28;20036;-79
2023/01/12 07:12:37;;;;;;;7.95;1.08;;;8.90;99.90;;;;;;5077501;28;20071;-81
2023/01/12 07:15:03;;;;;;;10.70;2.13;;;8.90;99.90;;;;;;5077184;28;20055;-80
2023/01/12 07:17:30;;;;;;;11.90;1.25;;;8.90;99.90;;;;;;5077387;28;20041;-79
2023/01/12 07:19:55;;;;;;;8.23;1.33;;;8.90;99.90;;;;;;5075626;28;20499;-82
2023/01/12 07:22:22;;;;;;;5.72;0.95;;;8.90;99.90;;;;;;5076962;28;20119;-80
2023/01/12 07:24:47;;;;;;;10.75;1.45;;;8.90;99.90;;;;;;5076218;28;20397;-83
2023/01/12 07:27:13;;;;;;;8.93;2.28;;;9.00;99.90;;;;;;5075780;28;20052;-81
2023/01/12 07:29:39;;;;;;;14.48;1.75;;;8.90;99.90;;;;;;5075061;28;20424;-81
2023/01/12 07:32:05;;;;;;;9.95;1.75;;;8.90;99.90;;;;;;5058847;28;20102;-81
2023/01/12 07:34:31;;;;;;;8.32;1.67;;;8.90;99.90;;;;;;5076233;28;20041;-83
2023/01/12 07:36:57;;;;;;;6.95;1.70;;;9.00;99.90;;;;;;5077208;28;20159;-80
2023/01/12 07:39:23;;;;;;;11.40;2.20;;;8.90;99.90;;;;;;5077220;28;20040;-80
2023/01/12 07:44:33;;;;;;;12.85;1.85;;;9.00;99.90;;;;;;5079415;28;20048;-81
2023/01/12 07:46:58;;;;;;;12.10;2.00;;;8.90;99.90;;;;;;5078034;28;20323;-79
2023/01/12 07:49:25;;;;;;;13.00;2.67;;;9.00;99.90;;;;;;5075605;28;20052;-85
2023/01/12 07:51:54;;;;;;;9.67;2.30;;;9.00;99.90;;;;;;5076483;28;20098;-81
2023/01/12 07:54:21;;;;;;;9.38;2.72;;;9.00;99.90;;;;;;5079346;28;20318;-82
2023/01/12 07:56:47;;;;;;;11.77;2.47;;;9.00;99.90;;;;;;5081505;28;20393;-85
2023/01/12 07:59:13;;;;;;;16.95;2.30;;;9.00;99.90;;;;;;5082472;28;20084;-81
2023/01/12 08:01:39;;;;;;;11.93;2.22;;;9.00;99.90;;;;;;5080613;28;20033;-81
2023/01/12 08:04:06;;;;;;;10.18;1.90;;;9.00;99.90;;;;;;5079811;28;20049;-82
2023/01/12 08:06:32;;;;;;;8.60;2.28;;;9.10;99.90;;;;;;5075337;28;20055;-80
2023/01/12 08:08:58;;;;;;;7.88;2.47;;;9.10;99.90;;;;;;5076205;28;20049;-82
2023/01/12 08:11:24;;;;;;;11.43;2.80;;;9.10;99.90;;;;;;5075787;28;20132;-82
2023/01/12 08:13:54;;;;;;;12.20;2.40;;;9.20;99.90;;;;;;5091511;28;20060;-83
2023/01/12 08:16:26;;;;;;;13.30;2.88;;;9.20;99.90;;;;;;5074918;28;20051;-81
2023/01/12 08:19:23;;;;;;;16.13;2.65;;;9.20;99.90;;;;;;5074700;28;20091;-81
2023/01/12 08:21:56;;;;;;;12.18;3.42;;;9.20;99.90;;;;;;5066247;28;20056;-82
2023/01/12 08:24:35;;;;;;;9.77;2.47;;;9.20;99.90;;;;;;5074765;28;20049;-81
2023/01/12 08:27:04;;;;;;;12.05;2.97;;;9.20;99.90;;;;;;5076197;28;20132;-83
2023/01/12 08:29:45;;;;;;;12.82;2.80;;;9.30;99.90;;;;;;5074656;28;20076;-81
2023/01/12 08:32:16;;;;;;;12.40;2.22;;;9.30;99.90;;;;;;5076113;28;20044;-83
2023/01/12 08:34:44;;;;;;;11.32;2.40;;;9.40;99.90;;;;;;5057229;28;20173;-83
2023/01/12 08:37:15;;;;;;;14.57;2.38;;;9.40;99.90;;;;;;5074028;28;20044;-82
2023/01/12 08:39:41;;;;;;;13.50;2.22;;;9.50;99.90;;;;;;5074481;28;20048;-79
2023/01/12 08:42:07;;;;;;;16.27;2.92;;;9.50;99.90;;;;;;5074046;28;20118;-78
2023/01/12 08:44:34;;;;;;;16.47;3.27;;;9.60;99.90;;;;;;5075016;28;20561;-82
2023/01/12 08:47:00;;;;;;;14.40;3.10;;;9.60;99.90;;;;;;5075140;28;20102;-79
2023/01/12 08:49:28;;;;;;;19.73;3.03;;;9.70;99.90;;;;;;5075176;28;20048;-83
2023/01/12 08:51:54;;;;;;;18.33;3.20;;;9.70;99.90;;;;;;5057643;28;20127;-82
2023/01/12 08:54:21;;;;;;;21.20;3.50;;;9.70;99.90;;;;;;5073620;28;20089;-80
2023/01/12 08:56:48;;;;;;;25.65;4.20;;;9.80;99.90;;;;;;5074119;28;20052;-80
2023/01/12 08:59:15;;;;;;;24.20;4.22;;;9.90;99.90;;;;;;5074177;28;20059;-81
2023/01/12 09:01:41;;;;;;;35.63;4.70;;;9.80;99.90;;;;;;5074014;28;20481;-82
2023/01/12 09:04:07;;;;;;;32.90;4.32;;;9.90;99.90;;;;;;5075725;28;20098;-83
2023/01/12 09:06:39;;;;;;;37.92;3.63;;;10.00;99.90;;;;;;5073880;28;20044;-82
2023/01/12 09:09:08;;;;;;;42.92;3.63;;;10.00;99.90;;;;;;5074825;28;20052;-82
2023/01/12 09:11:36;;;;;;;42.15;4.55;;;10.10;99.90;;;;;;5056625;28;20061;-80
2023/01/12 09:14:02;;;;;;;56.55;4.70;;;10.10;99.90;;;;;;5074170;28;20047;-84
2023/01/12 09:16:30;;;;;;;36.72;4.07;;;10.10;99.90;;;;;;5073582;28;20044;-81
2023/01/12 09:18:55;;;;;;;;;;;10.10;99.90;;;;;;5074995;28;20159;-83
2023/01/12 09:21:23;;;;;;;51.80;4.23;;;10.20;99.90;;;;;;5073432;28;20023;-86
2023/01/12 09:23:50;;;;;;;42.05;5.50;;;10.20;99.90;;;;;;5073785;28;20057;-83
2023/01/12 09:26:18;;;;;;;48.65;4.38;;;10.20;99.90;;;;;;5073962;28;20049;-81
2023/01/12 09:28:44;;;;;;;56.85;5.47;;;10.30;99.90;;;;;;5075416;28;20515;-83
2023/01/12 09:31:16;;;;;;;66.63;5.00;;;10.30;99.90;;;;;;5075695;28;20056;-84
2023/01/12 09:33:42;;;;;;;53.78;5.38;;;10.40;99.90;;;;;;5076483;28;20048;-82
2023/01/12 09:36:16;;;;;;;47.28;4.10;;;10.40;99.90;;;;;;5076002;28;20044;-84
2023/01/12 09:38:43;;;;;;;42.67;4.68;;;10.40;99.90;;;;;;5075186;28;20141;-82
2023/01/12 09:47:17;;;;;;;46.55;4.18;;;10.50;99.90;;;;;;5078772;28;20057;-85
2023/01/12 09:49:49;;;;;;;48.78;3.90;;;10.50;99.90;;;;;;5081057;28;20091;-85
2023/01/12 09:52:23;;;;;;;58.45;4.43;;;10.60;99.90;;;;;;5079879;28;20048;-83
2023/01/12 09:54:51;;;;;;;49.67;4.00;;;10.60;99.90;;;;;;5078184;28;20052;-86
2023/01/12 09:57:44;;;;;;;54.65;4.03;;;10.60;99.90;;;;;;5078104;28;20048;-83
2023/01/12 10:00:16;;;;;;;47.38;4.35;;;10.60;99.90;;;;;;5061268;28;20458;-81
2023/01/12 10:02:47;;;;;;;55.05;4.15;;;10.60;99.90;;;;;;5077660;28;20091;-82
2023/01/12 10:05:36;;;;;;;45.13;3.50;;;10.70;99.90;;;;;;5060255;28;20133;-87
2023/01/12 10:08:03;;;;;;;50.58;3.33;;;10.70;99.90;;;;;;5078421;28;20122;-83
2023/01/12 10:10:28;;;;;;;27.63;2.38;;;10.60;99.90;;;;;;5077906;28;20048;-80
2023/01/12 10:13:00;;;;;;;29.25;4.07;;;10.70;99.90;;;;;;5059554;28;20518;-82
2023/01/12 10:15:54;;;;;;;59.88;3.60;;;10.70;99.90;;;;;;5077694;28;20052;-81
2023/01/12 10:18:29;;;;;;;43.38;3.78;;;10.70;99.90;;;;;;5078278;28;20047;-80
2023/01/12 10:20:57;;;;;;;34.25;2.50;;;10.60;99.90;;;;;;5077792;28;20104;-83
2023/01/12 10:23:26;;;;;;;43.22;3.15;;;10.70;99.90;;;;;;5078396;28;20052;-84
2023/01/12 10:26:01;;;;;;;42.10;3.15;;;10.70;99.90;;;;;;5078401;28;20044;-83
2023/01/12 10:28:32;;;;;;;36.33;2.83;;;10.80;99.90;;;;;;5113052;28;20135;-84
2023/01/12 10:30:58;;;;;;;48.05;4.15;;;10.80;99.90;;;;;;5078599;28;20083;-85
2023/01/12 10:33:33;;;;;;;49.92;3.28;;;10.80;99.90;;;;;;5078571;28;20052;-81
2023/01/12 10:36:10;;;;;;;34.90;2.45;;;10.80;99.90;;;;;;5077715;28;20182;-82
2023/01/12 10:38:55;;;;;;;28.20;2.47;;;10.70;99.90;;;;;;5077091;28;20511;-82
2023/01/12 10:41:26;;;;;;;31.58;2.80;;;10.70;99.90;;;;;;5078275;28;20040;-82
2023/01/12 10:43:57;;;;;;;37.08;2.88;;;10.70;99.90;;;;;;5078333;28;20045;-85
2023/01/12 10:46:30;;;;;;;44.95;4.40;;;10.60;99.90;;;;;;5077281;28;20135;-84
2023/01/12 10:49:23;;;;;;;38.65;2.38;;;10.60;99.90;;;;;;5077267;28;20043;-83
2023/01/12 10:51:57;;;;;;;53.22;3.67;;;10.70;99.90;;;;;;5076898;28;20381;-81
2023/01/12 10:54:25;;;;;;;52.28;4.20;;;10.70;99.90;;;;;;5077066;28;20117;-82
2023/01/12 10:57:11;;;;;;;49.92;3.35;;;10.70;99.90;;;;;;5077270;28;20051;-83
2023/01/12 10:59:38;;;;;;;42.95;3.20;;;10.70;99.90;;;;;;5060393;28;20045;-84
2023/01/12 11:02:04;;;;;;;42.33;3.80;;;10.70;99.90;;;;;;5077575;28;20056;-81
2023/01/12 11:04:36;;;;;;;37.58;3.13;;;10.70;99.90;;;;;;5079240;28;20089;-84
2023/01/12 11:07:09;;;;;;;52.10;2.88;;;10.70;99.90;;;;;;5058843;28;20041;-84
2023/01/12 11:09:35;;;;;;;35.10;2.28;;;10.70;99.90;;;;;;5078704;28;20059;-84
2023/01/12 11:12:05;;;;;;;51.90;3.22;;;10.80;99.90;;;;;;5060272;28;20056;-83
2023/01/12 11:14:38;;;;;;;51.63;3.28;;;10.80;99.90;;;;;;5079235;28;20397;-87
2023/01/12 11:17:10;;;;;;;45.17;2.72;;;10.80;99.90;;;;;;5079650;28;20048;-86
2023/01/12 11:19:40;;;;;;;38.03;2.70;;;10.80;99.90;;;;;;5084489;28;20100;-82
2023/01/12 11:22:16;;;;;;;40.72;4.15;;;10.90;99.90;;;;;;5079591;28;20049;-82
2023/01/12 11:24:51;;;;;;;44.15;2.75;;;10.90;99.90;;;;;;5060866;28;20059;-86
2023/01/12 11:27:42;;;;;;;43.20;3.28;;;10.90;99.90;;;;;;5075208;28;20098;-83
2023/01/12 11:30:14;;;;;;;37.35;4.70;;;10.90;99.90;;;;;;5076837;28;20051;-87
2023/01/12 11:32:45;;;;;;;40.08;3.10;;;11.00;99.90;;;;;;5076419;28;20432;-83
2023/01/12 11:35:28;;;;;;;42.80;2.78;;;11.00;99.90;;;;;;5076022;28;20123;-86
2023/01/12 11:38:00;;;;;;;53.22;5.45;;;11.10;99.90;;;;;;5074353;28;20044;-82
2023/01/12 11:40:36;;;;;;;28.35;2.33;;;11.10;99.90;;;;;;5074348;28;20101;-81
2023/01/12 11:46:06;;;;;;;39.17;2.08;;;11.10;99.90;;;;;;5075431;28;20048;-83
2023/01/12 11:48:42;;;;;;;46.70;3.47;;;11.10;99.90;;;;;;5075967;28;20484;-84
2023/01/12 11:51:14;;;;;;;48.45;2.75;;;11.10;99.90;;;;;;5075496;28;20072;-83
2023/01/12 11:53:40;;;;;;;38.67;2.95;;;11.10;99.90;;;;;;5076442;28;20044;-84
2023/01/12 11:56:26;;;;;;;41.67;3.17;;;11.10;99.90;;;;;;5074432;28;20489;-82
2023/01/12 11:59:13;;;;;;;42.40;3.40;;;11.10;99.90;;;;;;5058948;28;20060;-81
2023/01/12 12:01:48;;;;;;;48.03;4.68;;;11.10;99.90;;;;;;5076740;28;20052;-83
2023/01/12 12:04:24;;;;;;;38.85;3.00;;;11.20;99.90;;;;;;5077317;28;20052;-80
2023/01/12 12:07:04;;;;;;;49.92;3.28;;;11.20;99.90;;;;;;5077203;28;20066;-83
2023/01/12 12:10:21;;;;;;;47.67;4.22;;;11.30;99.90;;;;;;5075467;28;20098;-84
2023/01/12 12:12:55;;;;;;;51.10;3.47;;;11.30;99.90;;;;;;5058419;28;20064;-81
2023/01/12 12:15:41;;;;;;;41.75;5.07;;;11.30;99.90;;;;;;5074251;28;20055;-80
2023/01/12 12:18:32;;;;;;;44.70;3.17;;;11.30;99.90;;;;;;5075397;28;20097;-81
2023/01/12 12:21:10;;;;;;;49.42;4.70;;;11.30;99.90;;;;;;5075453;28;20048;-81
2023/01/12 12:23:45;;;;;;;47.85;4.28;;;11.20;99.90;;;;;;5075969;28;20055;-82
2023/01/12 12:26:21;;;;;;;53.65;4.22;;;11.20;99.90;;;;;;5074196;28;20045;-85
2023/01/12 12:28:46;;;;;;;46.88;4.07;;;11.30;99.90;;;;;;5074806;28;20059;-81
2023/01/12 12:31:15;;;;;;;54.28;3.75;;;11.30;99.90;;;;;;5058360;28;20045;-82
2023/01/12 12:33:53;;;;;;;51.60;3.10;;;11.30;99.90;;;;;;5074625;28;20409;-80
2023/01/12 12:36:31;;;;;;;49.58;3.85;;;11.20;99.90;;;;;;5073809;28;20082;-83
2023/01/12 12:39:16;;;;;;;49.33;3.35;;;11.20;99.90;;;;;;5073419;28;20080;-81
2023/01/12 12:45:16;;;;;;;36.20;3.00;;;11.20;99.90;;;;;;5075099;28;20052;-84
2023/01/12 12:48:13;;;;;;;41.25;3.25;;;11.20;99.90;;;;;;5057697;28;20443;-81
2023/01/12 12:51:01;;;;;;;32.72;3.25;;;11.20;99.90;;;;;;5074514;28;20094;-81
2023/01/12 12:53:49;;;;;;;36.80;3.90;;;11.20;99.90;;;;;;5074261;28;20041;-83
2023/01/12 12:56:17;;;;;;;44.08;4.72;;;11.20;99.90;;;;;;5072901;28;20139;-81
2023/01/12 12:58:48;;;;;;;39.63;3.20;;;11.20;99.90;;;;;;5073449;28;20044;-82
2023/01/12 13:01:32;;;;;;;42.13;3.55;;;11.20;99.90;;;;;;5073182;28;20054;-82
2023/01/12 13:04:00;;;;;;;46.47;3.42;;;11.20;99.90;;;;;;5075813;28;20154;-83
2023/01/12 13:06:30;;;;;;;38.15;3.00;;;11.20;99.90;;;;;;5074423;28;20045;-79
2023/01/12 13:09:16;;;;;;;44.85;4.25;;;11.20;99.90;;;;;;5055778;28;20057;-82
2023/01/12 13:12:12;;;;;;;29.00;2.67;;;11.20;99.90;;;;;;5074589;28;20088;-81
2023/01/12 13:14:41;;;;;;;46.67;4.22;;;11.20;99.90;;;;;;5065039;28;20057;-81
2023/01/12 13:17:18;;;;;;;45.55;4.03;;;11.20;99.90;;;;;;5073995;28;20049;-81
2023/01/12 13:20:00;;;;;;;30.00;3.30;;;11.10;99.90;;;;;;5074224;28;20040;-81
2023/01/12 13:22:42;;;;;;;26.48;3.38;;;11.20;99.90;;;;;;5074128;28;20036;-84
2023/01/12 13:25:21;;;;;;;35.53;3.85;;;11.10;99.90;;;;;;5072559;28;20526;-83
2023/01/12 13:28:01;;;;;;;29.30;3.10;;;11.20;99.90;;;;;;5073481;28;20377;-84
2023/01/12 13:30:27;;;;;;;33.42;3.70;;;11.10;99.90;;;;;;5074199;28;20052;-78
2023/01/12 13:33:26;;;;;;;35.78;4.40;;;11.10;99.90;;;;;;5074742;28;20049;-81
2023/01/12 13:35:52;;;;;;;31.38;4.07;;;11.00;99.90;;;;;;5072351;28;20102;-82
2023/01/12 13:38:32;;;;;;;28.55;4.05;;;11.00;99.90;;;;;;5074147;28;20048;-83
2023/01/12 13:43:13;;;;;;;23.63;4.35;;;11.00;99.90;;;;;;5072845;28;20086;-84